Time;durP1;ratioP1;P1;durP2;ratioP2;P2;SDS_P1;SDS_P2;PMS_P1;PMS_P2;Temp;Humidity;BMP_temperature;BMP_pressure;BME280_temperature;BME280_humidity;BME280_pressure;Samples;Min_cycle;Max_cycle;Signal;HPM_P1;HPM_P2
2021/12/18 00:00:58;;;;;;;19.10;5.97;;;;;;;2.15;100.00;102583.34;4976288;59;1136905;-80
2021/12/18 00:06:04;;;;;;;12.63;4.13;;;;;;;2.11;100.00;102585.14;4972277;59;1137017;-79
2021/12/18 00:11:11;;;;;;;29.93;6.43;;;;;;;2.05;100.00;102587.36;4972772;59;1136970;-79
2021/12/18 00:16:18;;;;;;;21.53;5.90;;;;;;;1.99;100.00;102592.62;4990836;58;1136966;-81
2021/12/18 00:21:24;;;;;;;19.83;5.30;;;;;;;1.93;100.00;102587.47;5058055;58;1136988;-81
2021/12/18 00:26:30;;;;;;;27.30;4.80;;;;;;;1.89;100.00;102592.28;5141494;57;1134823;-78
2021/12/18 00:31:36;;;;;;;17.40;5.50;;;;;;;1.82;100.00;102594.53;5058018;58;1134842;-81
2021/12/18 00:36:42;;;;;;;18.13;4.97;;;;;;;1.80;100.00;102599.33;5077488;58;22529;-81
2021/12/18 00:41:59;;;;;;;15.10;5.37;;;;;;;1.76;100.00;102616.31;5141716;57;1134876;-81
2021/12/18 00:46:55;;;;;;;15.00;5.15;;;;;;;1.68;100.00;102617.26;5046580;58;1139026;-81
2021/12/18 00:52:01;;;;;;;11.18;4.22;;;;;;;1.64;100.00;102619.02;5038791;58;1139272;-82
2021/12/18 00:57:06;;;;;;;15.67;5.33;;;;;;;1.59;100.00;102628.60;5121436;57;1139026;-80
2021/12/18 01:02:14;;;;;;;21.33;4.95;;;;;;;1.55;100.00;102632.09;5038320;58;1139043;-81
2021/12/18 01:07:20;;;;;;;15.17;4.67;;;;;;;1.52;100.00;102621.71;5121347;57;1139252;-78
2021/12/18 01:12:31;;;;;;;16.07;4.90;;;;;;;1.51;100.00;102616.50;5038328;58;1139071;-81
2021/12/18 01:22:50;;;;;;;18.20;4.83;;;;;;;1.54;100.00;102617.33;5037330;58;1139072;-79
2021/12/18 01:27:56;;;;;;;18.30;5.40;;;;;;;1.57;100.00;102609.92;4957679;59;1139291;-80
2021/12/18 01:33:01;;;;;;;11.40;3.80;;;;;;;1.61;100.00;102607.73;4957611;59;1139083;-79
2021/12/18 01:38:07;;;;;;;16.60;4.67;;;;;;;1.69;100.00;102606.78;4957135;59;1139065;-81
2021/12/18 01:54:03;;;;;;;15.40;4.07;;;;;;;1.87;100.00;102604.91;4957083;59;1138436;-79
2021/12/18 01:59:09;;;;;;;9.40;3.97;;;;;;;1.96;100.00;102608.77;4957553;59;1139093;-81
2021/12/18 02:04:15;;;;;;;22.30;6.33;;;;;;;2.01;100.00;102606.52;4957863;59;1136937;-80
2021/12/18 02:09:24;;;;;;;22.87;4.83;;;;;;;2.04;100.00;102607.80;4957528;59;1139025;-78
2021/12/18 02:19:33;;;;;;;21.13;4.80;;;;;;;2.06;100.00;102611.71;4957810;59;1139247;-81
2021/12/18 02:19:59;;;;;;;15.23;3.57;;;;;;;2.03;100.00;102606.52;5025531;58;1139093;-79
2021/12/18 02:24:58;;;;;;;19.77;5.30;;;;;;;2.10;100.00;102617.34;5094562;57;1139053;-79
2021/12/18 02:30:07;;;;;;;13.93;3.80;;;;;;;2.09;100.00;102616.47;5037380;58;1138917;-82
2021/12/18 02:35:40;;;;;;;12.43;3.90;;;;;;;2.12;100.00;102607.75;5120487;57;1139077;-81
2021/12/18 02:46:09;;;;;;;10.13;3.37;;;;;;;2.14;100.00;102612.96;5119819;57;1136955;-81
2021/12/18 02:51:17;;;;;;;17.87;4.80;;;;;;;2.13;100.00;102605.57;5036919;58;1136961;-81
2021/12/18 02:56:25;;;;;;;9.93;3.75;;;;;;;2.16;100.00;102598.12;5119054;57;1136953;-83
2021/12/18 03:01:33;;;;;;;16.63;3.97;;;;;;;2.17;100.00;102594.20;5038013;58;1134937;-79
2021/12/18 03:06:43;;;;;;;27.10;5.03;;;;;;;2.18;100.00;102584.62;5037951;58;1136905;-81
2021/12/18 03:28:00;;;;;;;;;;;;;;;2.25;100.00;102569.34;5041910;58;1139036;-78
2021/12/18 03:33:06;;;;;;;9.90;3.13;;;;;;;2.26;100.00;102564.10;4956152;59;974531;-79
2021/12/18 03:38:12;;;;;;;13.13;3.27;;;;;;;2.28;100.00;102553.65;4958751;59;1134728;-79
2021/12/18 03:43:18;;;;;;;14.90;5.97;;;;;;;2.29;100.00;102562.73;5038023;58;1139335;-79
2021/12/18 03:48:24;;;;;;;19.17;4.67;;;;;;;2.29;100.00;102557.98;4957833;59;1138915;-81
2021/12/18 03:53:29;;;;;;;13.40;5.67;;;;;;;2.26;100.00;102553.66;5038045;58;1138983;-81
2021/12/18 03:58:35;;;;;;;42.53;20.17;;;;;;;2.27;100.00;102551.91;4957917;59;1139204;-78
2021/12/18 04:03:41;;;;;;;16.23;5.80;;;;;;;2.30;100.00;102537.50;5037913;58;1141861;-79
2021/12/18 04:08:48;;;;;;;19.67;4.92;;;;;;;2.30;100.00;102540.97;5037829;58;1139171;-83
2021/12/18 04:13:54;;;;;;;15.37;4.23;;;;;;;2.32;100.00;102534.43;4957858;59;1139279;-78
2021/12/18 04:19:01;;;;;;;20.30;6.07;;;;;;;2.31;100.00;102524.87;5100008;57;1139233;-79
2021/12/18 04:24:08;;;;;;;23.73;5.33;;;;;;;2.30;100.00;102519.22;5037931;58;1139581;-80
2021/12/18 04:29:14;;;;;;;21.93;8.28;;;;;;;2.27;100.00;102511.02;5101628;57;1139307;-81
2021/12/18 04:34:19;;;;;;;12.10;4.67;;;;;;;2.29;100.00;102504.00;5217429;56;1138972;-81
2021/12/18 04:39:26;;;;;;;10.87;3.43;;;;;;;2.29;100.00;102490.94;5217481;56;1139342;-82
2021/12/18 04:44:31;;;;;;;11.07;3.40;;;;;;;2.27;100.00;102495.34;5217283;56;1138981;-79
2021/12/18 04:49:37;;;;;;;12.87;3.97;;;;;;;2.28;100.00;102494.47;5217220;56;1138994;-81
2021/12/18 04:54:44;;;;;;;19.43;4.60;;;;;;;2.27;100.00;102491.88;5217222;56;1139107;-82
2021/12/18 04:59:50;;;;;;;8.60;3.47;;;;;;;2.26;100.00;102480.56;5217064;56;1139090;-81
2021/12/18 05:04:56;;;;;;;15.90;5.20;;;;;;;2.27;100.00;102484.91;5217295;56;1136965;-80
2021/12/18 05:10:04;;;;;;;12.03;4.60;;;;;;;2.26;100.00;102489.70;5217247;56;1139463;-82
2021/12/18 05:15:10;;;;;;;10.23;4.00;;;;;;;2.25;100.00;102485.80;5217005;56;1139388;-77
2021/12/18 05:20:16;;;;;;;7.75;3.35;;;;;;;2.26;100.00;102491.00;5130640;57;1139809;-79
2021/12/18 05:25:22;;;;;;;14.58;3.80;;;;;;;2.26;100.00;102500.14;5130620;57;1137266;-82
2021/12/18 05:30:28;;;;;;;9.23;4.53;;;;;;;2.27;100.00;102507.53;5130616;57;1138949;-82
2021/12/18 05:35:33;;;;;;;13.50;4.20;;;;;;;2.28;100.00;102500.99;5131648;57;1137035;-79
2021/12/18 05:40:40;;;;;;;11.73;3.65;;;;;;;2.26;100.00;102501.45;5131392;57;1139057;-83
2021/12/18 05:45:46;;;;;;;7.57;4.30;;;;;;;2.23;100.00;102492.78;5131292;57;1138969;-83
2021/12/18 05:50:52;;;;;;;5.30;3.37;;;;;;;2.22;100.00;102496.27;5121720;57;1137296;-79
2021/12/18 05:55:58;;;;;;;13.15;5.05;;;;;;;2.20;100.00;102487.14;5047446;58;1137338;-82
2021/12/18 06:01:04;;;;;;;11.87;4.27;;;;;;;2.25;100.00;102504.07;4927213;59;1139519;-82
2021/12/18 06:06:10;;;;;;;22.90;5.65;;;;;;;2.22;100.00;102496.27;4959420;58;1136914;-80
2021/12/18 06:11:19;;;;;;;12.23;5.80;;;;;;;2.20;100.00;102491.50;4986711;59;1137220;-79
2021/12/18 06:16:26;;;;;;;20.37;6.83;;;;;;;2.19;100.00;102497.16;5086469;57;1137036;-80
2021/12/18 06:21:31;;;;;;;15.53;7.60;;;;;;;2.16;100.00;102485.88;5151440;57;1136967;-82
2021/12/18 06:26:37;;;;;;;20.97;7.77;;;;;;;2.13;100.00;102495.95;5122510;57;1136937;-79
2021/12/18 06:31:43;;;;;;;21.80;9.07;;;;;;;2.15;100.00;102491.55;5054850;58;1136959;-81
2021/12/18 06:36:49;;;;;;;34.33;11.77;;;;;;;2.15;100.00;102491.55;5122266;57;1137243;-79
2021/12/18 06:41:55;;;;;;;46.83;13.57;;;;;;;2.16;100.00;102487.19;5122114;57;1139312;-81
2021/12/18 06:47:01;;;;;;;48.83;15.23;;;;;;;2.17;100.00;102495.01;5122223;57;1139019;-82
2021/12/18 06:52:07;;;;;;;45.77;15.40;;;;;;;2.18;100.00;102484.98;5129989;57;1139032;-82
2021/12/18 06:57:12;;;;;;;51.33;14.13;;;;;;;2.22;100.00;102491.91;5142126;57;1139298;-79
2021/12/18 07:02:18;;;;;;;66.50;20.87;;;;;;;2.23;100.00;102475.81;5142001;57;1139288;-81
2021/12/18 07:07:24;;;;;;;65.17;18.97;;;;;;;2.22;100.00;102480.61;5142212;57;1139044;-81
2021/12/18 07:12:30;;;;;;;51.00;16.77;;;;;;;2.23;100.00;102479.73;5142213;56;1139060;-79
2021/12/18 07:17:36;;;;;;;61.30;18.33;;;;;;;2.20;100.00;102474.09;5151542;56;1139168;-76
2021/12/18 07:22:42;;;;;;;52.57;17.27;;;;;;;2.21;100.00;102473.21;5188125;56;1138865;-76
2021/12/18 07:27:47;;;;;;;66.57;28.80;;;;;;;2.22;100.00;102471.03;5160378;56;1138919;-77
2021/12/18 07:32:53;;;;;;;57.10;19.93;;;;;;;2.22;100.00;102467.55;5183386;56;1139052;-77
2021/12/18 07:37:58;;;;;;;47.43;19.40;;;;;;;2.30;100.00;102473.53;5178573;56;1136949;-77
2021/12/18 07:43:06;;;;;;;29.73;14.10;;;;;;;2.30;100.00;102469.17;5178826;56;1136932;-75
2021/12/18 07:48:12;;;;;;;30.77;11.85;;;;;;;2.26;100.00;102451.84;5184458;56;1141230;-78
2021/12/18 07:53:18;;;;;;;32.63;15.30;;;;;;;2.23;100.00;102445.79;5098772;57;1141080;-76
2021/12/18 07:58:27;;;;;;;24.80;11.53;;;;;;;2.23;100.00;102449.27;5164105;56;1140942;-78
2021/12/18 08:03:58;;;;;;;24.00;12.17;;;;;;;2.19;100.00;102441.04;5174592;56;1141042;-77
2021/12/18 08:08:45;;;;;;;24.53;10.90;;;;;;;2.16;100.00;102441.07;5142290;56;1141023;-76
2021/12/18 08:13:54;;;;;;;23.97;10.73;;;;;;;2.11;100.00;102438.98;5102731;57;1141547;-76
2021/12/18 08:19:00;;;;;;;17.57;10.70;;;;;;;2.09;100.00;102431.16;5032889;58;1141169;-75
2021/12/18 08:24:16;;;;;;;16.40;8.60;;;;;;;2.09;100.00;102417.25;5142192;57;1141273;-76
2021/12/18 08:29:32;;;;;;;26.97;11.47;;;;;;;2.06;100.00;102413.36;5167486;56;1139283;-76
2021/12/18 08:34:42;;;;;;;17.67;10.57;;;;;;;2.07;100.00;102405.95;5078298;57;1141300;-76
2021/12/18 08:39:50;;;;;;;13.00;8.60;;;;;;;2.10;100.00;102397.66;5105544;57;1141056;-76
2021/12/18 08:44:56;;;;;;;20.33;10.97;;;;;;;2.11;100.00;102394.17;4987413;58;1138968;-76
2021/12/18 08:50:02;;;;;;;17.70;12.13;;;;;;;2.15;100.00;102378.44;5121880;57;1141149;-75
2021/12/18 08:55:09;;;;;;;14.57;9.30;;;;;;;2.17;100.00;102387.98;5105541;57;1141037;-79
2021/12/18 09:00:19;;;;;;;14.40;9.27;;;;;;;2.22;100.00;102393.16;5160597;57;1139002;-76
2021/12/18 09:05:27;;;;;;;17.20;8.00;;;;;;;2.24;100.00;102389.65;5155765;57;1138995;-76
2021/12/18 09:10:33;;;;;;;20.37;10.10;;;;;;;2.27;100.00;102384.83;5132066;57;1138786;-75
2021/12/18 09:15:38;;;;;;;122.23;51.30;;;;;;;2.30;100.00;102380.84;5127536;57;1141172;-75
2021/12/18 09:20:46;;;;;;;92.23;40.07;;;;;;;2.32;100.00;102376.47;5161758;57;1143143;-75
2021/12/18 09:25:51;;;;;;;62.47;25.53;;;;;;;2.36;100.00;102379.47;5161455;57;1141054;-76
2021/12/18 09:30:57;;;;;;;22.60;16.67;;;;;;;2.37;100.00;102378.59;5161559;57;1141087;-76
2021/12/18 09:36:04;;;;;;;17.50;9.20;;;;;;;2.41;100.00;102371.14;5159623;57;1141093;-75
2021/12/18 09:41:10;;;;;;;24.47;11.07;;;;;;;2.42;100.00;102361.98;5150248;57;1139082;-75
2021/12/18 09:46:17;;;;;;;20.13;10.43;;;;;;;2.42;100.00;102342.40;5149949;57;1141149;-75
2021/12/18 09:51:27;;;;;;;10.93;6.83;;;;;;;2.47;100.00;102336.64;5150695;57;1141361;-76
2021/12/18 09:56:35;;;;;;;14.77;9.53;;;;;;;2.51;100.00;102328.33;5126722;57;1139229;-75
2021/12/18 10:01:43;;;;;;;14.37;9.03;;;;;;;2.55;100.00;102319.56;5150207;57;1139245;-75
2021/12/18 10:06:48;;;;;;;13.93;7.53;;;;;;;2.59;100.00;102312.11;5150387;57;1139378;-76
2021/12/18 10:12:02;;;;;;;17.97;7.03;;;;;;;2.62;100.00;102309.86;5093875;57;1139143;-75
2021/12/18 10:17:25;;;;;;;;;;;;;;;2.67;100.00;102298.47;5152738;57;1136877;-75
2021/12/18 10:22:34;;;;;;;13.07;5.93;;;;;;;2.69;100.00;102290.61;5102426;57;972323;-75
2021/12/18 10:27:42;;;;;;;8.70;5.93;;;;;;;2.76;100.00;102282.62;5127278;57;1134833;-75
2021/12/18 10:33:06;;;;;;;9.13;4.67;;;;;;;2.79;100.00;102290.42;5149588;57;1134988;-75
2021/12/18 10:38:48;;;;;;;6.87;4.50;;;;;;;2.86;100.00;102288.58;5134496;57;1134806;-75
2021/12/18 10:44:08;;;;;;;33.67;21.30;;;;;;;2.90;100.00;102285.47;5052194;58;1137197;-75
2021/12/18 10:49:17;;;;;;;7.07;4.73;;;;;;;2.94;100.00;102287.98;5227303;56;1141114;-75
2021/12/18 10:54:24;;;;;;;9.23;4.33;;;;;;;2.97;100.00;102277.92;5187911;56;1136979;-76
2021/12/18 10:59:36;;;;;;;7.70;5.72;;;;;;;3.01;100.00;102263.92;5099006;57;1136998;-76
2021/12/18 11:04:44;;;;;;;7.97;5.20;;;;;;;3.03;100.00;102251.24;5117606;57;1136935;-79
2021/12/18 11:10:18;;;;;;;13.03;6.43;;;;;;;3.08;100.00;102245.91;5018944;57;1137248;-80
2021/12/18 11:14:57;;;;;;;12.00;6.53;;;;;;;3.10;100.00;102239.77;4959990;58;1139018;-77
2021/12/18 11:20:04;;;;;;;13.97;8.07;;;;;;;3.12;100.00;102235.38;5035078;58;1138945;-79
2021/12/18 11:25:14;;;;;;;10.70;6.37;;;;;;;3.13;100.00;102221.41;4955195;59;1139040;-75
2021/12/18 11:30:19;;;;;;;7.40;5.13;;;;;;;3.18;100.00;102223.94;4933582;59;1138992;-77
2021/12/18 11:35:27;;;;;;;10.17;6.50;;;;;;;3.21;100.00;102217.31;4936196;58;1136910;-77
2021/12/18 11:40:37;;;;;;;10.40;6.10;;;;;;;3.22;100.00;102194.20;4966169;58;1139097;-81
2021/12/18 11:45:42;;;;;;;7.53;4.80;;;;;;;3.25;100.00;102188.92;4984163;58;1138926;-78
2021/12/18 11:50:48;;;;;;;7.10;5.37;;;;;;;3.29;100.00;102184.50;4933797;59;1136915;-76
2021/12/18 11:55:59;;;;;;;7.50;5.70;;;;;;;3.31;100.00;102174.42;4966565;58;1137335;-75
2021/12/18 12:01:15;;;;;;;9.13;5.47;;;;;;;3.34;100.00;102166.52;5106998;57;1137213;-79
2021/12/18 12:06:34;;;;;;;9.23;5.53;;;;;;;3.38;100.00;102156.83;5121323;57;1136945;-77
2021/12/18 12:11:58;;;;;;;12.50;8.20;;;;;;;3.39;100.00;102161.17;5121552;57;1137116;-79
2021/12/18 12:17:25;;;;;;;9.17;7.03;;;;;;;3.41;100.00;102155.02;5091287;57;1139127;-76
2021/12/18 12:22:48;;;;;;;8.70;5.77;;;;;;;3.44;100.00;102150.17;4996705;58;1134840;-75
2021/12/18 12:28:05;;;;;;;6.10;4.73;;;;;;;3.46;100.00;102139.23;4977216;59;1134903;-78
2021/12/18 12:33:27;;;;;;;6.80;4.73;;;;;;;3.50;100.00;102135.66;4977353;59;1134884;-77
2021/12/18 12:38:55;;;;;;;7.13;4.93;;;;;;;3.52;100.00;102135.16;4977378;59;1134918;-80
2021/12/18 12:44:11;;;;;;;8.50;5.70;;;;;;;3.57;100.00;102135.06;4974185;59;1132902;-75
2021/12/18 12:49:21;;;;;;;6.60;3.67;;;;;;;3.60;100.00;102125.39;4977050;58;1136950;-74
2021/12/18 12:54:50;;;;;;;4.95;3.95;;;;;;;3.62;100.00;102120.12;4977615;58;1136875;-79
2021/12/18 13:00:09;;;;;;;4.43;3.30;;;;;;;3.64;100.00;102117.89;5032549;57;1136933;-77
2021/12/18 13:05:16;;;;;;;5.17;4.00;;;;;;;3.67;100.00;102116.48;5039625;58;1137059;-76
2021/12/18 13:10:34;;;;;;;4.10;3.43;;;;;;;3.71;100.00;102109.43;5057646;57;1136898;-79
2021/12/18 13:16:07;;;;;;;6.12;3.60;;;;;;;3.71;100.00;102101.13;5134753;57;1137044;-80
2021/12/18 13:21:23;;;;;;;6.67;3.40;;;;;;;3.73;100.00;102101.97;5058344;58;1137109;-79
2021/12/18 13:26:46;;;;;;;5.87;4.35;;;;;;;3.74;100.00;102076.66;5057809;58;1136999;-78
2021/12/18 13:31:56;;;;;;;8.03;4.57;;;;;;;3.74;100.00;102074.91;5057905;58;1136937;-78
2021/12/18 13:37:06;;;;;;;4.73;2.97;;;;;;;3.74;100.00;102069.67;5057416;58;1136963;-80
2021/12/18 13:42:19;;;;;;;5.23;4.23;;;;;;;3.73;100.00;102061.41;5057804;58;1137200;-76
2021/12/18 13:47:34;;;;;;;8.57;4.37;;;;;;;3.75;100.00;102060.06;5058245;58;1137351;-77
2021/12/18 13:52:51;;;;;;;7.40;4.20;;;;;;;3.76;100.00;102055.24;5057921;58;1137059;-79
2021/12/18 13:58:16;;;;;;;6.07;4.30;;;;;;;3.76;100.00;102041.71;5052107;58;1134816;-79
2021/12/18 14:03:29;;;;;;;6.80;4.27;;;;;;;3.76;100.00;102032.55;5037773;58;1135224;-78
2021/12/18 14:08:39;;;;;;;7.55;5.33;;;;;;;3.76;100.00;102021.23;5037651;58;1134942;-76
2021/12/18 14:13:54;;;;;;;6.60;4.12;;;;;;;3.73;100.00;102004.29;5037502;58;1134889;-79
2021/12/18 14:19:08;;;;;;;46.00;30.97;;;;;;;3.75;100.00;102005.11;5037632;58;1134912;-77
2021/12/18 14:24:17;;;;;;;20.27;13.70;;;;;;;3.75;100.00;102009.04;5037409;58;1138989;-78
2021/12/18 14:29:24;;;;;;;15.17;10.80;;;;;;;3.78;100.00;102003.28;4957535;59;1136910;-77
2021/12/18 14:34:33;;;;;;;9.30;6.47;;;;;;;3.81;100.00;101999.73;5037466;58;1136990;-74
2021/12/18 14:39:52;;;;;;;18.37;12.03;;;;;;;3.81;100.00;101988.81;4953035;59;1136871;-76
2021/12/18 14:45:02;;;;;;;42.13;22.80;;;;;;;3.81;100.00;101984.89;5037498;58;1141276;-80
2021/12/18 14:50:27;;;;;;;28.83;16.77;;;;;;;3.82;100.00;101980.48;4956667;59;1141148;-79
2021/12/18 14:55:47;;;;;;;18.30;7.87;;;;;;;3.86;100.00;101979.06;5036524;58;1141151;-80
2021/12/18 15:01:08;;;;;;;13.30;6.85;;;;;;;3.86;100.00;101968.59;5049881;58;1139044;-77
2021/12/18 15:06:31;;;;;;;6.20;4.03;;;;;;;3.84;100.00;101953.38;5056087;58;1139261;-79
2021/12/18 15:11:46;;;;;;;11.07;6.07;;;;;;;3.84;100.00;101955.14;5056095;58;1136892;-76
2021/12/18 15:17:04;;;;;;;5.43;4.20;;;;;;;3.86;100.00;101967.73;5056315;58;1139042;-76
2021/12/18 15:22:13;;;;;;;13.20;9.20;;;;;;;3.86;100.00;101952.03;5055808;58;1137293;-78
2021/12/18 15:27:21;;;;;;;5.72;3.80;;;;;;;3.88;100.00;101950.23;5026053;58;1139192;-79
2021/12/18 15:32:28;;;;;;;8.33;5.17;;;;;;;3.90;100.00;101943.20;5056083;58;1136888;-76
2021/12/18 15:37:34;;;;;;;5.83;4.43;;;;;;;3.91;100.00;101945.37;5055988;58;1137119;-78
2021/12/18 15:42:39;;;;;;;6.67;4.67;;;;;;;3.90;100.00;101944.52;5056344;58;1136997;-79
2021/12/18 15:47:45;;;;;;;6.03;5.27;;;;;;;3.93;100.00;101941.83;5056057;58;1136986;-79
2021/12/18 15:52:54;;;;;;;139.97;82.20;;;;;;;3.93;100.00;101929.19;5056170;58;1136995;-81
2021/12/18 15:57:59;;;;;;;126.17;84.83;;;;;;;3.94;100.00;101918.67;5056933;58;1143440;-77
2021/12/18 16:03:07;;;;;;;42.33;30.43;;;;;;;3.96;100.00;101910.79;5057092;58;1143244;-78
2021/12/18 16:08:12;;;;;;;9.47;8.47;;;;;;;3.95;100.00;101906.00;5057325;58;1139255;-78
2021/12/18 16:13:19;;;;;;;4.97;3.67;;;;;;;3.97;100.00;101913.81;5056753;58;1134911;-76
2021/12/18 16:18:25;;;;;;;5.20;3.70;;;;;;;4.01;100.00;101923.27;5110410;57;1134832;-81
2021/12/18 16:23:30;;;;;;;10.90;3.63;;;;;;;4.03;100.00;101918.41;5140891;57;1134831;-79
2021/12/18 16:28:36;;;;;;;9.20;6.10;;;;;;;4.07;100.00;101923.97;5140758;57;1136974;-79
2021/12/18 16:33:42;;;;;;;6.90;3.17;;;;;;;4.09;100.00;101935.72;5140739;57;1135191;-76
2021/12/18 16:38:51;;;;;;;5.13;3.87;;;;;;;4.10;100.00;101926.52;5140768;57;1134802;-76
2021/12/18 16:43:57;;;;;;;10.83;4.47;;;;;;;4.12;100.00;101923.41;5141472;57;1134906;-78
2021/12/18 16:49:04;;;;;;;5.70;5.13;;;;;;;4.14;100.00;101906.31;5141292;57;1136873;-77
2021/12/18 16:54:09;;;;;;;7.03;3.50;;;;;;;4.13;100.00;101891.05;5141158;57;1134901;-79
2021/12/18 16:59:15;;;;;;;9.20;3.27;;;;;;;4.12;100.00;101886.75;5141367;57;1134847;-77
2021/12/18 17:04:24;;;;;;;9.73;5.10;;;;;;;4.09;100.00;101862.41;5102917;57;1135054;-79
2021/12/18 17:09:33;;;;;;;2.63;2.40;;;;;;;4.11;100.00;101868.47;5087948;57;1135061;-74
2021/12/18 17:14:36;;;;;;;5.37;2.97;;;;;;;4.11;100.00;101869.77;5092871;57;1134871;-76
2021/12/18 17:19:42;;;;;;;3.97;2.20;;;;;;;4.10;100.00;101849.73;5083140;57;1134912;-78
2021/12/18 17:24:48;;;;;;;3.73;2.47;;;;;;;4.09;100.00;101858.03;5078538;57;1134786;-79
2021/12/18 17:29:53;;;;;;;2.10;1.30;;;;;;;4.10;100.00;101868.91;5048653;58;1134836;-79
2021/12/18 17:34:59;;;;;;;26.17;12.57;;;;;;;4.09;100.00;101861.10;5048879;58;1132756;-77
2021/12/18 17:40:09;;;;;;;29.57;15.32;;;;;;;4.09;100.00;101871.58;5048569;58;1136972;-75
2021/12/18 17:45:14;;;;;;;16.83;7.77;;;;;;;4.09;100.00;101855.41;5048414;58;1141115;-78
2021/12/18 17:50:21;;;;;;;15.67;7.43;;;;;;;4.09;100.00;101847.56;5048865;58;1139213;-75
2021/12/18 17:55:28;;;;;;;23.10;14.87;;;;;;;4.11;100.00;101850.14;5048635;58;1139390;-76
2021/12/18 18:00:34;;;;;;;7.47;3.83;;;;;;;4.12;100.00;101833.08;5047496;58;1141054;-78
2021/12/18 18:05:41;;;;;;;22.47;13.57;;;;;;;4.13;100.00;101831.28;5016006;59;1136944;-77
2021/12/18 18:10:48;;;;;;;5.23;3.30;;;;;;;4.11;100.00;101804.32;4962752;59;1141416;-74
2021/12/18 18:15:59;;;;;;;31.03;20.00;;;;;;;4.07;100.00;101798.31;5006222;59;1136952;-76
2021/12/18 18:21:04;;;;;;;7.73;5.50;;;;;;;4.07;100.00;101798.31;4936882;60;1141385;-78
2021/12/18 18:26:10;;;;;;;15.67;12.17;;;;;;;4.05;100.00;101787.03;4936722;59;1136892;-76
2021/12/18 18:31:16;;;;;;;5.05;2.80;;;;;;;4.03;100.00;101775.74;5016009;59;1141153;-78
2021/12/18 18:36:22;;;;;;;2.10;1.90;;;;;;;4.02;100.00;101757.02;5016036;58;1136819;-81
2021/12/18 18:41:30;;;;;;;5.83;3.83;;;;;;;4.02;100.00;101752.23;4937122;59;1136872;-79
2021/12/18 18:46:40;;;;;;;4.43;3.47;;;;;;;4.00;100.00;101730.47;5034234;58;1136902;-79
2021/12/18 18:51:45;;;;;;;6.17;3.53;;;;;;;4.00;100.00;101710.84;4936833;59;1137163;-75
2021/12/18 18:57:09;;;;;;;3.37;3.07;;;;;;;3.98;100.00;101707.41;4966912;59;21149;-79
2021/12/18 19:02:28;;;;;;;3.70;2.73;;;;;;;3.97;100.00;101696.56;5011087;57;1132762;-74
2021/12/18 19:07:34;;;;;;;7.80;5.53;;;;;;;4.00;100.00;101716.08;5099348;57;1136841;-76
2021/12/18 19:17:59;;;;;;;3.33;3.00;;;;;;;4.01;100.00;101706.02;4980550;55;1137371;-75
2021/12/18 19:23:06;;;;;;;2.93;2.20;;;;;;;4.01;100.00;101665.44;4965780;57;1136880;-76
2021/12/18 19:28:12;;;;;;;2.50;2.30;;;;;;;3.97;100.00;101672.56;4968615;57;1136831;-78
2021/12/18 19:33:17;;;;;;;7.53;3.53;;;;;;;3.97;100.00;101673.02;4973632;58;1136898;-76
2021/12/18 19:38:23;;;;;;;3.93;2.43;;;;;;;3.97;100.00;101669.94;4978023;57;1137458;-78
2021/12/18 19:43:30;;;;;;;2.23;1.97;;;;;;;3.98;100.00;101676.00;4978119;57;1136966;-76
2021/12/18 19:48:36;;;;;;;4.90;2.70;;;;;;;3.95;100.00;101656.50;4977846;57;1136913;-77
2021/12/18 19:53:42;;;;;;;3.30;2.30;;;;;;;3.94;100.00;101656.09;4977957;57;1137040;-77
2021/12/18 19:58:48;;;;;;;1.57;1.40;;;;;;;3.94;100.00;101643.86;4977894;57;1137238;-77
2021/12/18 20:09:18;;;;;;;2.07;1.70;;;;;;;3.96;100.00;101621.12;4934384;57;1134814;-78
2021/12/18 20:14:27;;;;;;;2.57;1.63;;;;;;;3.96;100.00;101605.87;4909718;58;1134929;-77
2021/12/18 20:19:32;;;;;;;2.07;1.33;;;;;;;3.95;100.00;101605.01;4904111;59;1134969;-77
2021/12/18 20:24:38;;;;;;;4.77;2.70;;;;;;;3.97;100.00;101595.80;4939090;59;1134966;-77
2021/12/18 20:29:44;;;;;;;1.47;1.37;;;;;;;3.98;100.00;101590.94;4875446;60;1135104;-77
2021/12/18 20:34:50;;;;;;;1.07;0.80;;;;;;;3.98;100.00;101583.08;4910592;59;1134913;-76
2021/12/18 20:39:58;;;;;;;1.53;0.97;;;;;;;3.97;100.00;101573.55;4952480;58;1134752;-76
2021/12/18 20:45:04;;;;;;;0.90;0.90;;;;;;;4.00;100.00;101585.20;4965093;58;1134853;-75
2021/12/18 20:50:14;;;;;;;1.17;1.07;;;;;;;4.02;100.00;101578.16;4944486;59;1135072;-75
2021/12/18 20:55:23;;;;;;;4.30;3.80;;;;;;;4.00;100.00;101550.72;4937686;59;1134902;-77
2021/12/18 21:00:34;;;;;;;30.67;19.40;;;;;;;4.01;100.00;101547.20;4957613;58;1135087;-78
2021/12/18 21:05:40;;;;;;;19.83;12.10;;;;;;;4.02;100.00;101548.06;4990748;58;1138991;-78
2021/12/18 21:10:49;;;;;;;9.87;4.30;;;;;;;4.04;100.00;101537.09;4987623;57;1136948;-77
2021/12/18 21:15:56;;;;;;;8.03;2.12;;;;;;;4.05;100.00;101529.64;4974618;57;1136938;-78
2021/12/18 21:21:04;;;;;;;4.37;1.10;;;;;;;4.05;100.00;101510.00;4896200;59;1137007;-77
2021/12/18 21:26:11;;;;;;;3.00;1.43;;;;;;;4.06;100.00;101499.48;4927609;58;1137051;-77
2021/12/18 21:31:18;;;;;;;7.83;2.87;;;;;;;4.06;100.00;101487.70;4905491;58;1137359;-77
2021/12/18 21:36:35;;;;;;;0.60;0.53;;;;;;;4.07;100.00;101463.23;4987009;59;1136975;-78
2021/12/18 21:41:49;;;;;;;13.10;3.57;;;;;;;4.10;100.00;101464.90;5014916;59;1136400;-77
2021/12/18 21:46:52;;;;;;;1.80;1.00;;;;;;;4.13;100.00;101451.67;4986404;57;1139223;-77
2021/12/18 21:51:59;;;;;;;2.27;1.13;;;;;;;4.16;100.00;101458.97;4976321;59;1136981;-78
2021/12/18 21:57:06;;;;;;;13.10;3.13;;;;;;;4.20;100.00;101449.25;4979335;59;1136898;-80
2021/12/18 22:02:13;;;;;;;8.90;5.80;;;;;;;4.23;100.00;101439.98;4988637;58;1138379;-78
2021/12/18 22:07:20;;;;;;;2.03;1.83;;;;;;;4.27;100.00;101434.18;4933927;59;1137259;-81
2021/12/18 22:12:26;;;;;;;4.97;2.50;;;;;;;4.29;100.00;101424.48;4965366;58;1137128;-79
2021/12/18 22:17:31;;;;;;;1.33;1.23;;;;;;;4.32;100.00;101412.59;4961899;59;1137015;-79
2021/12/18 22:22:37;;;;;;;1.27;0.87;;;;;;;4.33;100.00;101405.98;4964435;59;1137618;-80
2021/12/18 22:27:45;;;;;;;2.92;1.42;;;;;;;4.37;100.00;101391.02;4965747;59;1137037;-78
2021/12/18 22:32:52;;;;;;;1.73;1.10;;;;;;;4.41;100.00;101372.97;4962398;58;1136984;-78
2021/12/18 22:37:58;;;;;;;9.40;4.83;;;;;;;4.43;100.00;101360.67;4958907;59;1137108;-78
2021/12/18 22:43:04;;;;;;;2.23;1.90;;;;;;;4.45;100.00;101343.96;4968888;59;1136855;-79
2021/12/18 22:48:10;;;;;;;3.73;1.97;;;;;;;4.48;100.00;101332.06;4967883;59;1137319;-78
2021/12/18 22:53:16;;;;;;;1.53;1.40;;;;;;;4.49;100.00;101320.67;4969965;59;1136816;-78
2021/12/18 22:58:21;;;;;;;3.70;1.87;;;;;;;4.53;100.00;101323.58;4963826;59;1136931;-79
2021/12/18 23:03:27;;;;;;;3.43;3.13;;;;;;;4.54;100.00;101298.23;4940988;59;1136968;-79
2021/12/18 23:08:35;;;;;;;1.63;1.37;;;;;;;4.59;100.00;101306.73;4940384;59;1137033;-81
2021/12/18 23:13:58;;;;;;;3.47;2.00;;;;;;;4.61;100.00;101295.75;4967837;59;1137476;-78
2021/12/18 23:24:16;;;;;;;2.47;1.70;;;;;;;4.63;100.00;101262.48;4893115;59;1137014;-78
2021/12/18 23:29:26;;;;;;;3.43;2.00;;;;;;;4.65;100.00;101244.94;4940818;59;1136948;-78
2021/12/18 23:34:31;;;;;;;5.13;1.90;;;;;;;4.67;100.00;101227.39;5044297;58;1136917;-77
2021/12/18 23:39:43;;;;;;;2.73;2.20;;;;;;;4.71;100.00;101226.81;4963097;59;1136952;-77
2021/12/18 23:50:11;;;;;;;3.70;2.57;;;;;;;4.76;100.00;101207.79;5046349;58;1135131;-77
2021/12/18 23:55:17;;;;;;;2.27;2.10;;;;;;;4.79;100.00;101186.70;5064765;58;1135235;-77
